Time;durP1;ratioP1;P1;durP2;ratioP2;P2;SDS_P1;SDS_P2;PMS_P1;PMS_P2;Temp;Humidity;BMP_temperature;BMP_pressure;BME280_temperature;BME280_humidity;BME280_pressure;Samples;Min_cycle;Max_cycle;Signal;HPM_P1;HPM_P2
2022/06/17 00:00:55;;;;;;;53.42;38.33;;;10.70;99.90;;;;;;5017476;28;20030;-72
2022/06/17 00:03:23;;;;;;;53.80;36.08;;;10.80;99.90;;;;;;5017483;28;20104;-72
2022/06/17 00:05:50;;;;;;;46.90;34.58;;;10.80;99.90;;;;;;5017360;28;20026;-72
2022/06/17 00:08:20;;;;;;;50.25;36.95;;;10.70;99.90;;;;;;5017505;28;20033;-72
2022/06/17 00:10:45;;;;;;;50.85;37.05;;;10.60;99.90;;;;;;5017788;28;20084;-72
2022/06/17 00:13:17;;;;;;;53.60;38.50;;;10.70;99.90;;;;;;5017393;28;20034;-72
2022/06/17 00:15:45;;;;;;;58.45;40.78;;;10.50;99.90;;;;;;5017212;28;20026;-72
2022/06/17 00:18:11;;;;;;;64.97;41.92;;;10.50;99.90;;;;;;5017176;28;20042;-72
2022/06/17 00:20:37;;;;;;;61.47;41.58;;;10.50;99.90;;;;;;5017221;28;20030;-72
2022/06/17 00:23:10;;;;;;;64.20;41.38;;;10.60;99.90;;;;;;5017134;28;20045;-72
2022/06/17 00:25:37;;;;;;;54.17;38.70;;;10.70;99.90;;;;;;5017314;28;20517;-72
2022/06/17 00:28:09;;;;;;;60.30;41.13;;;10.70;99.90;;;;;;5017051;28;20109;-72
2022/06/17 00:30:35;;;;;;;52.63;36.13;;;10.70;99.90;;;;;;5015662;28;20022;-72
2022/06/17 00:33:02;;;;;;;45.40;31.63;;;10.60;99.90;;;;;;5017185;28;20105;-72
2022/06/17 00:35:35;;;;;;;53.03;35.92;;;10.50;99.90;;;;;;5017276;28;20041;-72
2022/06/17 00:38:02;;;;;;;54.10;36.13;;;10.50;99.90;;;;;;5016797;28;20421;-72
2022/06/17 00:40:31;;;;;;;51.85;34.97;;;10.40;99.90;;;;;;5016602;28;20025;-71
2022/06/17 00:43:00;;;;;;;50.10;34.58;;;10.40;99.90;;;;;;5016082;28;20123;-71
2022/06/17 00:45:35;;;;;;;50.92;36.10;;;10.40;99.90;;;;;;5016467;28;20073;-72
2022/06/17 00:48:11;;;;;;;55.70;35.35;;;10.30;99.90;;;;;;5016636;28;20505;-71
2022/06/17 00:50:39;;;;;;;52.33;35.47;;;10.20;99.90;;;;;;5016697;28;20036;-71
2022/06/17 00:53:19;;;;;;;49.55;33.05;;;10.20;99.90;;;;;;5016387;28;20026;-72
2022/06/17 00:56:11;;;;;;;53.38;35.08;;;10.10;99.90;;;;;;5016458;28;20022;-71
2022/06/17 00:59:04;;;;;;;69.20;43.40;;;10.00;99.90;;;;;;5016589;28;20029;-71
2022/06/17 01:01:40;;;;;;;68.83;42.50;;;9.90;99.90;;;;;;5016246;28;20037;-71
2022/06/17 01:04:09;;;;;;;68.70;44.38;;;9.80;99.90;;;;;;5016181;28;20093;-72
2022/06/17 01:06:41;;;;;;;611.03;68.68;;;9.80;99.90;;;;;;5016082;28;20112;-71
2022/06/17 01:12:19;;;;;;;70.75;46.67;;;10.10;99.90;;;;;;5016635;28;20125;-71
2022/06/17 01:14:45;;;;;;;63.05;43.30;;;10.20;99.90;;;;;;5015990;28;20022;-71
2022/06/17 01:17:13;;;;;;;157.85;44.22;;;10.10;99.90;;;;;;5014537;28;20456;-71
2022/06/17 01:19:40;;;;;;;55.45;38.83;;;10.10;99.90;;;;;;5016189;28;20109;-71
2022/06/17 01:22:15;;;;;;;50.45;36.97;;;10.10;99.90;;;;;;5015999;28;20034;-72
2022/06/17 01:24:42;;;;;;;54.05;37.13;;;10.10;99.90;;;;;;5016159;28;20457;-71
2022/06/17 01:27:08;;;;;;;155.85;46.95;;;10.00;99.90;;;;;;5015717;28;20061;-71
2022/06/17 01:29:34;;;;;;;69.50;44.03;;;10.10;99.90;;;;;;5015707;28;20034;-71
2022/06/17 01:32:01;;;;;;;46.88;35.40;;;10.10;99.90;;;;;;5014285;28;20033;-72
2022/06/17 01:34:27;;;;;;;379.27;46.13;;;10.10;99.90;;;;;;5015662;28;20091;-71
2022/06/17 01:36:54;;;;;;;143.65;36.45;;;10.10;99.90;;;;;;5015392;28;20482;-71
2022/06/17 01:39:20;;;;;;;44.72;32.78;;;10.00;99.90;;;;;;5015659;28;20031;-71
2022/06/17 01:41:47;;;;;;;40.13;31.83;;;10.00;99.90;;;;;;5015702;28;20045;-72
2022/06/17 01:44:17;;;;;;;202.63;35.60;;;10.00;99.90;;;;;;5015549;28;20033;-71
2022/06/17 01:46:46;;;;;;;49.95;32.65;;;9.90;99.90;;;;;;5015448;28;20022;-72
2022/06/17 01:49:19;;;;;;;223.35;39.78;;;10.00;99.90;;;;;;5015520;28;20038;-71
2022/06/17 01:51:51;;;;;;;38.00;31.88;;;9.90;99.90;;;;;;5015489;28;20025;-71
2022/06/17 01:54:54;;;;;;;37.15;30.23;;;10.00;99.90;;;;;;5016005;28;20034;-71
2022/06/17 01:57:27;;;;;;;35.90;30.05;;;10.00;99.90;;;;;;5015785;28;20022;-72
2022/06/17 01:59:58;;;;;;;263.63;40.47;;;10.00;99.90;;;;;;5015506;28;20124;-72
2022/06/17 02:02:25;;;;;;;322.80;45.33;;;10.00;99.90;;;;;;5015236;28;20026;-72
2022/06/17 02:04:58;;;;;;;73.85;33.85;;;10.00;99.90;;;;;;5013947;28;20022;-72
2022/06/17 02:07:30;;;;;;;35.72;30.27;;;10.00;99.90;;;;;;5015398;28;20029;-72
2022/06/17 02:09:56;;;;;;;36.07;30.70;;;10.00;99.90;;;;;;5015218;28;20034;-71
2022/06/17 02:12:24;;;;;;;33.58;29.23;;;10.00;99.90;;;;;;5015043;28;20044;-71
2022/06/17 02:14:51;;;;;;;33.40;28.50;;;10.00;99.90;;;;;;5015032;28;20481;-71
2022/06/17 02:17:17;;;;;;;33.28;26.83;;;10.00;99.90;;;;;;5014634;28;20041;-71
2022/06/17 02:19:45;;;;;;;29.92;26.10;;;10.00;99.90;;;;;;5014877;28;20030;-71
2022/06/17 02:22:15;;;;;;;33.35;27.20;;;9.90;99.90;;;;;;5013586;28;20131;-72
2022/06/17 02:24:41;;;;;;;35.72;28.70;;;9.90;99.90;;;;;;5015001;28;20029;-71
2022/06/17 02:27:11;;;;;;;36.50;28.52;;;9.80;99.90;;;;;;5014809;28;20022;-72
2022/06/17 02:29:39;;;;;;;30.70;25.33;;;9.80;99.90;;;;;;5014930;28;20046;-71
2022/06/17 02:32:07;;;;;;;30.88;26.05;;;9.70;99.90;;;;;;5014603;28;20028;-72
2022/06/17 02:34:35;;;;;;;31.35;25.17;;;9.70;99.90;;;;;;5014708;28;20018;-72
2022/06/17 02:37:06;;;;;;;24.40;21.83;;;9.70;99.90;;;;;;5014476;28;20030;-71
2022/06/17 02:39:33;;;;;;;26.13;23.33;;;9.70;99.90;;;;;;5014835;28;20482;-71
2022/06/17 02:41:59;;;;;;;25.52;22.80;;;9.70;99.90;;;;;;5014993;28;20450;-71
2022/06/17 02:44:31;;;;;;;26.38;23.05;;;9.60;99.90;;;;;;5014278;28;20026;-72
2022/06/17 02:46:59;;;;;;;28.63;24.08;;;9.60;99.90;;;;;;5013062;28;20377;-71
2022/06/17 02:49:30;;;;;;;28.38;24.65;;;9.60;99.90;;;;;;5014737;28;20018;-71
2022/06/17 02:51:58;;;;;;;32.90;27.15;;;9.50;99.90;;;;;;5014294;28;20030;-71
2022/06/17 02:54:35;;;;;;;29.25;25.98;;;9.50;99.90;;;;;;5014077;28;20030;-71
2022/06/17 02:57:02;;;;;;;29.10;25.08;;;9.50;99.90;;;;;;5014188;28;20034;-71
2022/06/17 02:59:43;;;;;;;28.25;25.17;;;9.50;99.90;;;;;;5014390;28;20529;-71
2022/06/17 03:02:30;;;;;;;29.90;26.80;;;9.50;99.90;;;;;;5014526;28;20026;-71
2022/06/17 03:04:58;;;;;;;34.50;28.95;;;9.40;99.90;;;;;;5014133;28;20030;-72
2022/06/17 03:07:28;;;;;;;34.47;29.00;;;9.40;99.90;;;;;;5014633;28;20029;-71
2022/06/17 03:09:54;;;;;;;39.53;30.15;;;9.40;99.90;;;;;;5014226;28;20018;-71
2022/06/17 03:12:23;;;;;;;175.90;35.15;;;9.40;99.90;;;;;;5014299;28;20030;-71
2022/06/17 03:14:50;;;;;;;31.48;27.38;;;9.40;99.90;;;;;;5014012;28;20022;-71
2022/06/17 03:17:18;;;;;;;51.25;31.73;;;9.40;99.90;;;;;;5013992;28;20026;-71
2022/06/17 03:19:45;;;;;;;32.95;28.05;;;9.50;99.90;;;;;;5012737;28;20057;-71
2022/06/17 03:22:13;;;;;;;48.60;30.98;;;9.60;99.90;;;;;;5013931;28;20026;-71
2022/06/17 03:24:43;;;;;;;29.63;26.42;;;9.70;99.90;;;;;;5013957;28;20061;-71
2022/06/17 03:27:40;;;;;;;35.65;31.60;;;9.80;99.90;;;;;;5013977;28;20053;-71
2022/06/17 03:30:07;;;;;;;33.47;28.73;;;9.80;99.90;;;;;;5014420;28;20556;-71
2022/06/17 03:32:40;;;;;;;35.22;30.02;;;9.70;99.90;;;;;;5013980;28;20026;-71
2022/06/17 03:35:06;;;;;;;35.45;29.38;;;9.80;99.90;;;;;;5012432;28;20034;-71
2022/06/17 03:37:38;;;;;;;29.70;26.15;;;9.80;99.90;;;;;;5014319;28;20466;-71
2022/06/17 03:40:27;;;;;;;32.15;28.23;;;9.90;99.90;;;;;;5013763;28;20489;-71
2022/06/17 03:43:11;;;;;;;35.50;30.63;;;9.90;99.90;;;;;;5008278;28;20042;-71
2022/06/17 03:45:46;;;;;;;39.38;31.90;;;10.00;99.90;;;;;;5013731;28;20022;-71
2022/06/17 03:48:23;;;;;;;42.17;34.42;;;10.00;99.90;;;;;;5013837;28;20033;-71
2022/06/17 03:50:49;;;;;;;38.25;32.42;;;10.10;99.90;;;;;;5013985;28;20164;-71
2022/06/17 03:53:25;;;;;;;39.72;33.55;;;10.10;99.90;;;;;;5013949;28;20054;-71
2022/06/17 03:55:53;;;;;;;37.92;33.42;;;10.20;99.90;;;;;;5013607;28;20018;-71
2022/06/17 03:58:20;;;;;;;33.60;29.83;;;10.10;99.90;;;;;;5013703;28;20072;-71
2022/06/17 04:01:13;;;;;;;32.65;28.52;;;10.20;99.90;;;;;;5012459;28;20030;-71
2022/06/17 04:03:42;;;;;;;44.90;32.13;;;10.20;99.90;;;;;;5013718;28;20145;-71
2022/06/17 04:06:15;;;;;;;34.05;29.20;;;10.30;99.90;;;;;;5013685;28;20033;-71
2022/06/17 04:09:16;;;;;;;34.45;29.75;;;10.50;99.90;;;;;;5013713;28;20080;-71
2022/06/17 04:11:46;;;;;;;37.65;31.00;;;10.50;99.90;;;;;;4992012;28;20052;-71
2022/06/17 04:14:34;;;;;;;32.13;28.30;;;10.60;99.90;;;;;;5013414;28;20030;-71
2022/06/17 04:17:05;;;;;;;44.28;30.23;;;10.70;99.90;;;;;;5015269;28;20034;-71
2022/06/17 04:19:31;;;;;;;34.10;28.80;;;10.70;99.90;;;;;;5017881;28;20390;-71
2022/06/17 04:22:14;;;;;;;55.58;31.17;;;10.80;99.90;;;;;;5017391;28;20022;-71
2022/06/17 04:24:41;;;;;;;36.58;29.85;;;10.80;99.90;;;;;;5017201;28;20029;-71
2022/06/17 04:27:12;;;;;;;67.15;31.58;;;10.90;99.90;;;;;;5017131;28;20463;-70
2022/06/17 04:29:42;;;;;;;36.75;30.08;;;10.90;99.90;;;;;;5017042;28;20386;-71
2022/06/17 04:32:22;;;;;;;41.30;32.42;;;11.00;99.90;;;;;;5017156;28;20042;-71
2022/06/17 04:34:47;;;;;;;35.15;27.60;;;11.00;99.90;;;;;;5017240;28;20026;-71
2022/06/17 04:37:19;;;;;;;33.25;26.20;;;11.10;99.90;;;;;;5016484;28;20548;-71
2022/06/17 04:39:57;;;;;;;35.47;28.27;;;11.20;99.90;;;;;;5017353;28;20018;-71
2022/06/17 04:42:38;;;;;;;31.25;25.73;;;11.30;99.90;;;;;;5016847;28;20162;-71
2022/06/17 04:45:05;;;;;;;49.47;34.92;;;11.30;99.90;;;;;;5016447;28;20022;-71
2022/06/17 04:47:32;;;;;;;38.67;31.02;;;11.40;99.90;;;;;;5016501;28;20029;-71
2022/06/17 04:50:13;;;;;;;46.20;33.20;;;11.50;99.90;;;;;;5016686;28;20029;-71
2022/06/17 04:52:44;;;;;;;53.72;38.90;;;11.70;99.90;;;;;;5016453;28;20029;-71
2022/06/17 04:55:25;;;;;;;52.97;40.10;;;11.80;99.90;;;;;;5016817;28;20378;-71
2022/06/17 04:57:51;;;;;;;58.08;42.17;;;11.90;99.90;;;;;;5016334;28;20056;-71
2022/06/17 05:00:19;;;;;;;54.20;37.28;;;12.00;99.90;;;;;;5016465;28;20394;-71
2022/06/17 05:02:45;;;;;;;59.45;42.13;;;12.10;99.90;;;;;;5016118;28;20026;-70
2022/06/17 05:05:16;;;;;;;74.78;51.45;;;12.30;99.90;;;;;;5016287;28;20037;-71
2022/06/17 05:07:46;;;;;;;64.75;45.65;;;12.50;99.90;;;;;;5016472;28;20037;-71
2022/06/17 05:10:21;;;;;;;58.47;42.35;;;12.60;99.90;;;;;;5016004;28;20037;-71
2022/06/17 05:12:55;;;;;;;69.03;50.08;;;12.70;99.90;;;;;;5016114;28;20029;-70
2022/06/17 05:15:21;;;;;;;68.00;48.78;;;12.90;99.90;;;;;;5015941;28;20018;-71
2022/06/17 05:17:48;;;;;;;84.13;50.88;;;13.00;99.90;;;;;;5016040;28;20385;-71
2022/06/17 05:20:16;;;;;;;77.25;51.97;;;13.20;99.90;;;;;;5015801;28;20033;-71
2022/06/17 05:22:47;;;;;;;71.13;51.50;;;13.30;99.90;;;;;;5015726;28;20021;-71
2022/06/17 05:25:18;;;;;;;74.78;51.22;;;13.40;99.90;;;;;;5015928;28;20085;-71
2022/06/17 05:27:44;;;;;;;88.75;58.00;;;13.50;99.90;;;;;;5015262;28;20390;-71
2022/06/17 05:30:11;;;;;;;106.30;71.38;;;13.70;99.90;;;;;;5015131;28;20041;-71
2022/06/17 05:32:39;;;;;;;79.55;57.33;;;13.80;99.90;;;;;;5016167;28;20033;-71
2022/06/17 05:35:04;;;;;;;81.28;50.08;;;14.00;99.90;;;;;;5015632;28;20038;-71
2022/06/17 05:37:30;;;;;;;78.50;53.42;;;14.20;99.90;;;;;;5015590;28;20038;-71
2022/06/17 05:39:56;;;;;;;68.85;46.85;;;14.30;99.90;;;;;;5015371;28;20348;-71
2022/06/17 05:42:21;;;;;;;74.68;48.42;;;14.40;99.90;;;;;;5015345;28;20049;-72
2022/06/17 05:44:47;;;;;;;63.80;47.63;;;14.40;99.90;;;;;;5015454;28;20379;-70
2022/06/17 05:47:13;;;;;;;66.88;48.88;;;14.50;99.90;;;;;;5015061;28;20049;-71
2022/06/17 05:49:40;;;;;;;52.30;41.22;;;14.60;99.90;;;;;;5015754;28;20379;-71
2022/06/17 05:52:06;;;;;;;66.03;44.78;;;14.70;99.90;;;;;;5015361;28;20029;-71
2022/06/17 05:54:32;;;;;;;52.53;37.15;;;14.80;99.90;;;;;;5015059;28;20018;-71
2022/06/17 05:56:57;;;;;;;49.15;38.78;;;14.90;99.90;;;;;;5015058;28;20030;-71
2022/06/17 05:59:23;;;;;;;56.72;41.53;;;15.00;99.90;;;;;;5015182;28;20026;-71
2022/06/17 06:01:48;;;;;;;42.03;34.60;;;15.10;99.90;;;;;;5014879;28;20018;-71
2022/06/17 06:04:14;;;;;;;50.35;42.25;;;15.20;99.90;;;;;;5014945;28;20034;-71
2022/06/17 06:06:40;;;;;;;45.80;35.97;;;15.30;99.90;;;;;;5014864;28;20104;-71
2022/06/17 06:09:05;;;;;;;37.92;28.88;;;15.50;99.90;;;;;;5014939;28;20029;-71
2022/06/17 06:11:31;;;;;;;41.95;28.35;;;15.70;99.90;;;;;;5014731;28;20026;-71
2022/06/17 06:13:57;;;;;;;40.58;33.90;;;15.70;99.90;;;;;;5014909;28;20022;-71
2022/06/17 06:16:23;;;;;;;41.05;30.23;;;15.90;99.90;;;;;;5015016;28;20168;-70
2022/06/17 06:18:50;;;;;;;28.83;21.55;;;16.10;99.90;;;;;;5014687;28;20033;-70
2022/06/17 06:21:16;;;;;;;28.50;19.17;;;16.30;99.90;;;;;;5014920;28;20494;-71
2022/06/17 06:23:42;;;;;;;31.30;19.40;;;16.40;99.90;;;;;;5014664;28;20034;-70
2022/06/17 06:26:13;;;;;;;32.90;21.90;;;16.50;99.90;;;;;;5014512;28;20037;-71
2022/06/17 06:28:38;;;;;;;25.92;18.10;;;16.60;99.90;;;;;;5014681;28;20037;-71
2022/06/17 06:31:22;;;;;;;24.35;16.67;;;16.80;99.90;;;;;;5014353;28;20386;-71
2022/06/17 06:33:48;;;;;;;23.83;14.93;;;17.10;99.90;;;;;;5014735;28;20026;-71
2022/06/17 06:36:14;;;;;;;20.75;12.55;;;17.30;99.90;;;;;;5014965;28;20038;-71
2022/06/17 06:38:39;;;;;;;20.58;13.07;;;17.50;99.90;;;;;;5014291;28;20032;-71
2022/06/17 06:41:05;;;;;;;20.25;12.82;;;17.50;99.90;;;;;;5014609;28;20053;-71
2022/06/17 06:43:31;;;;;;;18.52;10.93;;;17.70;99.90;;;;;;5015378;28;20030;-71
2022/06/17 06:45:57;;;;;;;25.60;14.43;;;17.70;99.90;;;;;;5014275;28;20061;-70
2022/06/17 06:48:25;;;;;;;17.67;12.38;;;17.90;99.90;;;;;;5013963;28;20026;-70
2022/06/17 06:50:51;;;;;;;18.92;11.32;;;18.00;99.90;;;;;;5013862;28;20026;-70
2022/06/17 06:53:17;;;;;;;18.15;11.68;;;18.00;99.90;;;;;;5013893;28;20030;-71
2022/06/17 06:55:43;;;;;;;20.85;11.02;;;18.10;99.90;;;;;;5013839;28;20022;-71
2022/06/17 06:58:16;;;;;;;19.73;9.88;;;18.10;99.90;;;;;;5014086;28;20050;-71
2022/06/17 07:00:44;;;;;;;15.32;8.75;;;18.30;99.90;;;;;;5013722;28;20441;-71
2022/06/17 07:03:11;;;;;;;24.77;11.50;;;18.50;99.90;;;;;;5013809;28;20060;-71
2022/06/17 07:05:40;;;;;;;18.25;10.73;;;18.80;99.90;;;;;;5013905;28;20535;-71
2022/06/17 07:08:11;;;;;;;20.15;10.77;;;19.00;99.90;;;;;;5012394;28;20508;-71
2022/06/17 07:10:36;;;;;;;19.77;8.95;;;19.10;99.90;;;;;;5013758;28;20513;-70
2022/06/17 07:13:04;;;;;;;18.70;9.13;;;19.30;99.90;;;;;;5013832;28;20034;-71
2022/06/17 07:15:30;;;;;;;21.00;11.48;;;19.20;99.90;;;;;;5013626;28;20113;-71
2022/06/17 07:18:02;;;;;;;17.42;8.73;;;19.10;99.90;;;;;;5013561;28;20026;-71
2022/06/17 07:20:37;;;;;;;19.42;9.05;;;19.30;99.90;;;;;;5013847;28;20108;-70
2022/06/17 07:23:04;;;;;;;15.18;8.35;;;19.20;99.90;;;;;;5014110;28;20060;-70
2022/06/17 07:25:30;;;;;;;15.77;8.90;;;19.10;99.90;;;;;;5013670;28;20542;-70
2022/06/17 07:27:56;;;;;;;17.83;9.05;;;19.30;99.90;;;;;;5013731;28;20061;-70
2022/06/17 07:30:22;;;;;;;19.05;8.93;;;19.40;99.90;;;;;;5013906;28;20030;-70
2022/06/17 07:32:47;;;;;;;22.52;8.68;;;19.60;99.90;;;;;;5013708;28;20509;-70
2022/06/17 07:35:14;;;;;;;18.40;8.15;;;19.90;99.90;;;;;;5013675;28;20022;-70
2022/06/17 07:40:24;;;;;;;12.18;6.40;;;20.60;99.90;;;;;;5014279;28;20087;-70
2022/06/17 07:42:49;;;;;;;14.27;5.85;;;21.00;99.90;;;;;;5013680;28;20034;-71
2022/06/17 07:45:19;;;;;;;12.18;6.00;;;21.40;99.90;;;;;;5013493;28;20104;-70
2022/06/17 07:47:48;;;;;;;12.65;6.07;;;21.40;99.90;;;;;;5013821;28;20480;-70
2022/06/17 07:50:16;;;;;;;13.25;5.95;;;21.50;99.90;;;;;;5013881;28;20116;-70
2022/06/17 07:52:42;;;;;;;16.48;6.95;;;21.00;99.90;;;;;;5016026;28;20044;-70
2022/06/17 07:55:08;;;;;;;11.70;6.45;;;20.40;99.90;;;;;;5017396;28;20022;-70
2022/06/17 07:57:33;;;;;;;12.05;4.88;;;20.20;99.90;;;;;;5017692;28;20417;-70
2022/06/17 07:59:59;;;;;;;14.82;5.20;;;19.90;99.90;;;;;;5017392;28;20041;-69
2022/06/17 08:02:25;;;;;;;12.13;4.78;;;20.00;99.90;;;;;;5017235;28;20037;-68
2022/06/17 08:04:51;;;;;;;8.35;2.70;;;20.00;99.90;;;;;;5017300;28;20363;-69
2022/06/17 08:07:17;;;;;;;4.15;2.33;;;20.00;99.90;;;;;;5017106;28;20021;-69
2022/06/17 08:09:43;;;;;;;8.82;3.10;;;19.90;99.90;;;;;;5017408;28;20018;-68
2022/06/17 08:12:13;;;;;;;12.90;3.55;;;19.90;99.90;;;;;;5017170;28;20084;-69
2022/06/17 08:14:47;;;;;;;5.57;1.80;;;19.80;99.90;;;;;;5017132;28;20394;-69
2022/06/17 08:17:15;;;;;;;14.13;3.17;;;19.50;99.90;;;;;;5017187;28;20112;-69
2022/06/17 08:19:43;;;;;;;11.23;2.78;;;19.50;99.90;;;;;;5016966;28;20525;-69
2022/06/17 08:22:09;;;;;;;5.10;3.45;;;19.40;99.90;;;;;;5016983;28;20063;-68
2022/06/17 08:24:35;;;;;;;6.88;3.30;;;19.40;99.90;;;;;;5015910;28;20375;-68
2022/06/17 08:27:00;;;;;;;6.05;3.35;;;19.40;99.90;;;;;;5015562;28;20034;-69
2022/06/17 08:29:28;;;;;;;7.30;3.95;;;19.70;99.90;;;;;;5017070;28;20042;-69
2022/06/17 08:31:54;;;;;;;8.18;4.88;;;20.00;99.90;;;;;;5016671;28;20025;-69
2022/06/17 08:34:19;;;;;;;8.50;3.25;;;20.30;99.90;;;;;;5017138;28;20034;-68
2022/06/17 08:36:45;;;;;;;8.63;4.53;;;20.40;99.90;;;;;;5012759;28;20078;-68
2022/06/17 08:39:13;;;;;;;7.80;4.18;;;20.50;99.90;;;;;;4996922;28;20024;-68
2022/06/17 08:42:04;;;;;;;11.20;5.25;;;20.20;99.90;;;;;;4997266;28;20109;-68
2022/06/17 08:44:45;;;;;;;9.68;5.82;;;20.20;99.90;;;;;;4997461;28;20463;-68
2022/06/17 08:47:33;;;;;;;12.95;5.60;;;20.20;99.90;;;;;;5000183;28;20032;-68
2022/06/17 08:50:17;;;;;;;9.20;4.40;;;20.10;99.90;;;;;;5016730;28;20447;-68
2022/06/17 08:52:52;;;;;;;;;;;20.10;99.90;;;;;;5017041;28;20030;-68
2022/06/17 08:55:43;;;;;;;15.38;6.00;;;20.20;99.90;;;;;;5016077;28;19953;-68
2022/06/17 08:58:48;;;;;;;12.02;3.60;;;20.50;99.90;;;;;;5016805;28;20026;-68
2022/06/17 09:01:17;;;;;;;12.93;4.22;;;20.80;99.90;;;;;;5016161;28;20045;-68
2022/06/17 09:03:51;;;;;;;5.22;2.80;;;21.10;99.90;;;;;;5017153;28;20094;-68
2022/06/17 09:06:50;;;;;;;9.20;2.97;;;21.10;99.90;;;;;;5017530;28;20037;-68
2022/06/17 09:09:27;;;;;;;8.82;3.08;;;21.10;99.90;;;;;;5016379;28;20505;-68
2022/06/17 09:11:55;;;;;;;11.48;5.38;;;21.10;99.90;;;;;;5016405;28;20056;-68
2022/06/17 09:14:36;;;;;;;11.30;4.68;;;21.00;99.90;;;;;;5016059;28;20084;-68
2022/06/17 09:17:12;;;;;;;9.02;4.68;;;21.00;99.90;;;;;;5015743;28;20025;-68
2022/06/17 09:19:43;;;;;;;12.80;5.78;;;21.20;99.90;;;;;;5015872;28;20021;-68
2022/06/17 09:22:11;;;;;;;12.32;5.72;;;21.50;99.90;;;;;;5015832;28;20072;-68
2022/06/17 09:24:41;;;;;;;11.73;6.43;;;21.80;99.90;;;;;;5015657;28;20441;-68
2022/06/17 09:27:13;;;;;;;10.30;6.35;;;21.80;99.90;;;;;;5015644;28;20387;-68
2022/06/17 09:29:51;;;;;;;13.40;7.78;;;21.70;99.90;;;;;;5015969;28;20026;-68
2022/06/17 09:32:28;;;;;;;10.48;5.35;;;21.50;99.90;;;;;;5015560;28;20022;-68
2022/06/17 09:35:04;;;;;;;8.15;4.80;;;21.20;99.90;;;;;;5015528;28;20022;-68
2022/06/17 09:37:39;;;;;;;21.02;5.68;;;21.00;99.90;;;;;;5015808;28;20128;-68
2022/06/17 09:40:38;;;;;;;12.73;6.10;;;21.10;99.90;;;;;;5015459;28;20018;-68
2022/06/17 09:43:18;;;;;;;15.20;8.43;;;21.30;99.90;;;;;;5011790;28;20034;-68
2022/06/17 09:45:55;;;;;;;17.30;7.18;;;21.50;99.90;;;;;;5015853;28;20053;-68
2022/06/17 09:48:39;;;;;;;14.80;8.00;;;21.50;99.90;;;;;;5015402;28;20022;-68
2022/06/17 09:51:07;;;;;;;;;;;21.50;99.90;;;;;;5015912;28;20030;-68
2022/06/17 09:53:42;;;;;;;19.77;7.20;;;21.50;99.90;;;;;;5015182;28;20000;-68
2022/06/17 09:56:20;;;;;;;12.73;5.97;;;21.40;99.90;;;;;;5015586;28;20067;-68
2022/06/17 09:58:52;;;;;;;13.82;7.63;;;21.50;99.90;;;;;;5015397;28;20026;-68
2022/06/17 10:01:19;;;;;;;11.30;5.00;;;21.40;99.90;;;;;;5015131;28;20105;-68
2022/06/17 10:03:44;;;;;;;11.13;4.68;;;21.40;99.90;;;;;;5014968;28;20034;-68
2022/06/17 10:06:24;;;;;;;10.40;5.53;;;21.40;99.90;;;;;;5013611;28;20486;-68
2022/06/17 10:09:25;;;;;;;8.35;5.03;;;21.40;99.90;;;;;;5014862;28;20021;-68
2022/06/17 10:11:54;;;;;;;9.43;5.15;;;21.20;99.90;;;;;;5015058;28;20057;-68
2022/06/17 10:14:32;;;;;;;11.25;5.75;;;21.10;99.90;;;;;;5014060;28;20434;-68
2022/06/17 10:20:12;;;;;;;16.00;5.88;;;21.10;99.90;;;;;;5015036;28;20111;-68
2022/06/17 10:22:51;;;;;;;10.02;4.25;;;21.00;99.90;;;;;;5014801;28;20022;-68
2022/06/17 10:25:23;;;;;;;9.80;4.57;;;21.00;99.90;;;;;;5015143;28;20026;-68
2022/06/17 10:28:07;;;;;;;21.92;4.35;;;21.00;99.90;;;;;;5014475;28;20022;-68
2022/06/17 10:31:03;;;;;;;15.38;4.05;;;21.10;99.90;;;;;;5014652;28;20033;-68
2022/06/17 10:33:32;;;;;;;15.07;5.13;;;21.00;99.90;;;;;;5014561;28;20022;-68
2022/06/17 10:35:57;;;;;;;13.85;5.18;;;21.00;99.90;;;;;;5012976;28;20034;-68
2022/06/17 10:38:29;;;;;;;13.40;3.80;;;20.90;99.90;;;;;;5014588;28;20065;-68
2022/06/17 10:40:55;;;;;;;15.90;4.55;;;21.10;99.90;;;;;;5015051;28;20437;-68
2022/06/17 10:43:26;;;;;;;9.45;4.72;;;21.10;99.90;;;;;;5014603;28;20056;-68
2022/06/17 10:45:53;;;;;;;10.80;5.10;;;21.20;99.90;;;;;;5014260;28;20022;-68
2022/06/17 10:48:42;;;;;;;12.18;3.53;;;21.40;99.90;;;;;;5014333;28;20391;-69
2022/06/17 10:51:09;;;;;;;7.88;4.47;;;21.20;99.90;;;;;;5014415;28;20101;-68
2022/06/17 10:53:42;;;;;;;6.57;3.55;;;21.10;99.90;;;;;;5014120;28;20030;-68
2022/06/17 10:56:15;;;;;;;12.80;3.67;;;20.90;99.90;;;;;;5014136;28;20018;-68
2022/06/17 10:59:01;;;;;;;13.43;4.32;;;20.90;99.90;;;;;;5014224;28;20030;-68
2022/06/17 11:01:45;;;;;;;13.50;3.90;;;20.70;99.90;;;;;;5014118;28;20061;-68
2022/06/17 11:04:16;;;;;;;9.40;3.80;;;20.70;99.90;;;;;;5014150;28;20387;-68
2022/06/17 11:07:13;;;;;;;10.05;4.63;;;20.80;99.90;;;;;;5013956;28;20030;-68
2022/06/17 11:09:45;;;;;;;10.10;3.95;;;20.90;99.90;;;;;;5014540;28;20025;-68
2022/06/17 11:12:38;;;;;;;13.75;4.00;;;21.10;99.90;;;;;;5014273;28;20034;-68
2022/06/17 11:15:36;;;;;;;10.75;4.25;;;21.00;99.90;;;;;;5013263;28;20041;-68
2022/06/17 11:18:08;;;;;;;11.75;4.57;;;20.90;99.90;;;;;;5014159;28;20022;-68
2022/06/17 11:20:37;;;;;;;10.40;3.75;;;20.80;99.90;;;;;;5014227;28;20030;-68
2022/06/17 11:23:15;;;;;;;12.00;4.35;;;20.80;99.90;;;;;;5013913;28;20469;-68
2022/06/17 11:25:41;;;;;;;11.82;3.67;;;20.80;99.90;;;;;;5015503;28;20030;-68
2022/06/17 11:28:24;;;;;;;11.13;4.45;;;21.10;99.90;;;;;;5019206;28;20065;-68
2022/06/17 11:30:56;;;;;;;15.38;4.50;;;21.40;99.90;;;;;;5018654;28;20030;-68
2022/06/17 11:33:27;;;;;;;11.50;3.88;;;21.30;99.90;;;;;;5017740;28;20026;-68
2022/06/17 11:36:17;;;;;;;10.07;4.55;;;21.30;99.90;;;;;;5017568;28;20030;-68
2022/06/17 11:38:43;;;;;;;10.38;3.78;;;21.30;99.90;;;;;;5018270;28;20091;-68
2022/06/17 11:41:10;;;;;;;11.10;3.75;;;21.40;99.90;;;;;;5016336;28;20030;-68
2022/06/17 11:43:39;;;;;;;10.93;4.70;;;21.60;99.90;;;;;;5017918;28;20449;-68
2022/06/17 11:46:18;;;;;;;10.48;4.20;;;21.60;99.90;;;;;;5017849;28;20022;-68
2022/06/17 11:48:49;;;;;;;11.82;4.63;;;21.70;99.90;;;;;;5017863;28;20053;-68
2022/06/17 11:51:25;;;;;;;7.88;4.22;;;21.70;99.90;;;;;;5017727;28;20026;-68
2022/06/17 11:53:58;;;;;;;14.43;5.10;;;21.70;99.90;;;;;;5017522;28;20026;-68
2022/06/17 11:56:41;;;;;;;;;;;21.90;99.90;;;;;;5018115;28;20026;-68
2022/06/17 11:59:31;;;;;;;8.38;4.30;;;22.10;99.90;;;;;;5017661;28;20011;-68
2022/06/17 12:01:56;;;;;;;10.48;4.22;;;22.30;99.90;;;;;;5014683;28;20085;-68
2022/06/17 12:04:47;;;;;;;14.68;3.55;;;22.20;99.90;;;;;;5017613;28;20042;-68
2022/06/17 12:07:39;;;;;;;11.52;4.38;;;22.30;99.90;;;;;;5014338;28;20112;-68
2022/06/17 12:10:24;;;;;;;9.43;3.50;;;22.40;99.90;;;;;;5017360;28;20347;-68
2022/06/17 12:12:52;;;;;;;13.48;4.80;;;22.50;99.90;;;;;;5017162;28;20109;-68
2022/06/17 12:15:36;;;;;;;14.80;4.40;;;22.70;99.90;;;;;;5017001;28;20087;-68
2022/06/17 12:18:03;;;;;;;11.80;4.60;;;22.90;99.90;;;;;;5017210;28;20018;-68
2022/06/17 12:20:37;;;;;;;9.98;3.65;;;23.00;99.90;;;;;;5016982;28;20022;-68
2022/06/17 12:23:46;;;;;;;12.75;4.10;;;23.30;99.90;;;;;;5016872;28;20112;-68
2022/06/17 12:26:29;;;;;;;8.95;3.97;;;23.20;99.90;;;;;;5009522;28;20041;-68
2022/06/17 12:29:22;;;;;;;16.17;4.28;;;23.30;99.90;;;;;;5017087;28;20069;-68
2022/06/17 12:31:54;;;;;;;9.88;4.97;;;23.00;99.90;;;;;;5016732;28;20022;-68
2022/06/17 12:34:34;;;;;;;11.10;5.60;;;22.50;99.90;;;;;;5016754;28;20034;-68
2022/06/17 12:37:09;;;;;;;12.23;4.85;;;22.30;99.90;;;;;;5016632;28;20042;-68
2022/06/17 12:39:51;;;;;;;7.65;3.88;;;22.30;99.90;;;;;;5016584;28;20112;-69
2022/06/17 12:42:32;;;;;;;10.73;4.72;;;22.30;99.90;;;;;;5016464;28;20485;-69
2022/06/17 12:45:03;;;;;;;11.30;4.47;;;22.40;99.90;;;;;;5016751;28;20030;-70
2022/06/17 12:47:44;;;;;;;9.35;4.22;;;22.90;99.90;;;;;;5015013;28;20021;-70
2022/06/17 12:53:41;;;;;;;10.80;4.38;;;23.50;99.90;;;;;;5016482;28;20029;-70
2022/06/17 12:56:17;;;;;;;13.05;4.55;;;24.00;99.90;;;;;;5016255;28;20050;-70
2022/06/17 12:59:20;;;;;;;8.48;4.38;;;24.00;99.90;;;;;;5016434;28;20022;-70
2022/06/17 13:02:05;;;;;;;15.25;4.30;;;24.40;99.90;;;;;;5016429;28;20022;-70
2022/06/17 13:05:03;;;;;;;13.60;4.40;;;24.40;99.90;;;;;;5014802;28;20038;-70
2022/06/17 13:07:51;;;;;;;6.90;3.92;;;24.20;99.90;;;;;;5016041;28;20101;-70
2022/06/17 13:10:48;;;;;;;7.65;3.78;;;24.10;99.90;;;;;;5016175;28;20049;-70
2022/06/17 13:13:57;;;;;;;11.50;4.53;;;24.10;99.90;;;;;;5015958;28;20018;-70